createdAt,value
2022-09-12T00:01:22.538Z,3.38
2022-09-12T00:03:54.073Z,3.05
2022-09-12T00:06:24.898Z,3.50
2022-09-12T00:08:55.269Z,3.35
2022-09-12T00:11:25.055Z,3.55
2022-09-12T00:13:53.581Z,3.47
2022-09-12T00:16:24.538Z,3.45
2022-09-12T00:18:53.860Z,2.88
2022-09-12T00:21:23.587Z,3.10
2022-09-12T00:23:52.105Z,2.88
2022-09-12T00:26:22.083Z,2.95
2022-09-12T00:28:52.328Z,2.88
2022-09-12T00:31:24.264Z,3.00
2022-09-12T00:33:52.773Z,3.13
2022-09-12T00:36:23.234Z,2.80
2022-09-12T00:38:54.845Z,3.28
2022-09-12T00:41:25.534Z,3.28
2022-09-12T00:43:56.442Z,3.60
2022-09-12T00:46:32.813Z,2.83
2022-09-12T00:49:05.006Z,3.00
2022-09-12T00:51:36.243Z,3.20
2022-09-12T00:54:09.592Z,3.38
2022-09-12T00:56:40.970Z,3.25
2022-09-12T00:59:15.673Z,2.80
2022-09-12T01:01:46.129Z,2.75
2022-09-12T01:04:14.823Z,2.60
2022-09-12T01:06:44.940Z,2.72
2022-09-12T01:09:18.365Z,3.10
2022-09-12T01:11:49.019Z,3.22
2022-09-12T01:14:19.432Z,3.10
2022-09-12T01:16:48.693Z,2.83
2022-09-12T01:19:37.949Z,2.83
2022-09-12T01:22:24.433Z,2.67
2022-09-12T01:25:05.676Z,2.63
2022-09-12T01:27:58.803Z,3.38
2022-09-12T01:33:55.968Z,2.90
2022-09-12T01:36:35.281Z,2.40
2022-09-12T01:39:06.869Z,2.50
2022-09-12T01:41:50.127Z,2.63
2022-09-12T01:44:30.631Z,2.80
2022-09-12T01:47:08.626Z,2.83
2022-09-12T01:49:46.462Z,2.50
2022-09-12T01:52:19.791Z,2.63
2022-09-12T01:54:52.737Z,2.65
2022-09-12T01:57:26.586Z,2.58
2022-09-12T02:00:00.494Z,2.30
2022-09-12T02:02:35.426Z,2.88
2022-09-12T02:05:09.948Z,2.75
2022-09-12T02:07:43.358Z,2.60
2022-09-12T02:10:16.232Z,2.90
2022-09-12T02:12:49.121Z,3.08
2022-09-12T02:15:22.056Z,4.00
2022-09-12T02:17:53.435Z,3.42
2022-09-12T02:20:44.380Z,3.83
2022-09-12T02:23:18.277Z,3.30
2022-09-12T02:25:50.053Z,4.10
2022-09-12T02:28:23.587Z,4.00
2022-09-12T02:31:01.693Z,4.45
2022-09-12T02:33:39.700Z,4.47
2022-09-12T02:36:22.107Z,4.90
2022-09-12T02:38:50.576Z,5.45
2022-09-12T02:41:20.917Z,6.78
2022-09-12T02:43:51.577Z,6.88
2022-09-12T02:46:23.936Z,6.93
2022-09-12T02:48:53.681Z,6.57
2022-09-12T02:51:23.746Z,6.90
2022-09-12T02:53:52.339Z,7.18
2022-09-12T02:56:26.037Z,6.78
2022-09-12T02:58:55.750Z,6.40
2022-09-12T03:01:36.181Z,6.50
2022-09-12T03:04:20.631Z,5.82
2022-09-12T03:06:59.870Z,5.78
2022-09-12T03:09:37.987Z,5.20
2022-09-12T03:12:15.474Z,5.47
2022-09-12T03:15:01.812Z,5.40
2022-09-12T03:17:41.962Z,4.63
2022-09-12T03:20:13.146Z,5.07
2022-09-12T03:22:51.321Z,5.10
2022-09-12T03:25:23.511Z,4.88
2022-09-12T03:27:58.693Z,6.28
2022-09-12T03:30:27.457Z,5.60
2022-09-12T03:32:56.721Z,5.65
2022-09-12T03:35:26.808Z,4.68
2022-09-12T03:37:54.948Z,4.68
2022-09-12T03:40:23.169Z,4.32
2022-09-12T03:42:51.441Z,4.57
2022-09-12T03:45:19.603Z,4.72
2022-09-12T03:47:47.772Z,4.95
2022-09-12T03:50:16.000Z,5.07
2022-09-12T03:52:45.481Z,4.93
2022-09-12T03:55:13.732Z,4.75
2022-09-12T03:57:41.744Z,5.45
2022-09-12T04:00:11.036Z,5.07
2022-09-12T04:02:39.080Z,5.10
2022-09-12T04:05:08.340Z,5.45
2022-09-12T04:07:36.507Z,4.53
2022-09-12T04:10:06.856Z,4.15
2022-09-12T04:12:37.889Z,4.53
2022-09-12T04:15:07.550Z,3.42
2022-09-12T04:17:36.184Z,3.83
2022-09-12T04:20:04.642Z,3.63
2022-09-12T04:22:33.460Z,3.90
2022-09-12T04:25:01.622Z,3.28
2022-09-12T04:27:31.125Z,3.63
2022-09-12T04:29:59.682Z,3.40
2022-09-12T04:32:27.749Z,3.85
2022-09-12T04:34:55.777Z,3.72
2022-09-12T04:37:24.742Z,3.53
2022-09-12T04:39:57.893Z,3.78
2022-09-12T04:42:26.420Z,3.97
2022-09-12T04:44:55.937Z,5.10
2022-09-12T04:47:24.285Z,3.80
2022-09-12T04:49:52.544Z,4.63
2022-09-12T04:52:20.572Z,4.13
2022-09-12T04:54:48.622Z,4.10
2022-09-12T04:57:16.992Z,3.33
2022-09-12T04:59:45.395Z,4.18
2022-09-12T05:02:14.982Z,3.70
2022-09-12T05:04:43.138Z,4.18
2022-09-12T05:07:11.803Z,3.42
2022-09-12T05:09:39.945Z,3.15
2022-09-12T05:12:08.559Z,3.13
2022-09-12T05:14:36.942Z,3.45
2022-09-12T05:17:06.297Z,3.03
2022-09-12T05:19:36.027Z,3.08
2022-09-12T05:22:05.139Z,3.00
2022-09-12T05:24:33.220Z,3.17
2022-09-12T05:27:01.309Z,3.00
2022-09-12T05:29:29.603Z,2.72
2022-09-12T05:31:57.841Z,2.95
2022-09-12T05:34:28.011Z,2.97
2022-09-12T05:36:57.481Z,3.63
2022-09-12T05:39:25.810Z,3.85
2022-09-12T05:41:54.438Z,3.45
2022-09-12T05:44:22.604Z,3.55
2022-09-12T05:46:51.473Z,4.90
2022-09-12T05:49:19.594Z,3.90
2022-09-12T05:51:47.803Z,3.95
2022-09-12T05:54:21.371Z,3.80
2022-09-12T05:56:49.583Z,3.65
2022-09-12T05:59:19.660Z,3.50
2022-09-12T06:01:48.689Z,3.40
2022-09-12T06:04:17.464Z,3.58
2022-09-12T06:06:46.969Z,4.13
2022-09-12T06:09:17.867Z,3.47
2022-09-12T06:11:47.142Z,4.38
2022-09-12T06:14:17.225Z,4.35
2022-09-12T06:16:45.421Z,3.72
2022-09-12T06:19:16.706Z,3.45
2022-09-12T06:21:45.441Z,3.58
2022-09-12T06:24:13.531Z,3.45
2022-09-12T06:26:43.871Z,3.78
2022-09-12T06:29:13.493Z,4.95
2022-09-12T06:31:43.284Z,4.63
2022-09-12T06:34:12.972Z,5.00
2022-09-12T06:36:43.086Z,4.30
2022-09-12T06:39:14.259Z,4.05
2022-09-12T06:41:44.675Z,4.35
2022-09-12T06:44:16.310Z,3.40
2022-09-12T06:46:44.772Z,3.97
2022-09-12T06:49:13.392Z,3.92
2022-09-12T06:51:43.414Z,3.88
2022-09-12T06:54:14.193Z,3.88
2022-09-12T06:56:43.825Z,4.55
2022-09-12T06:59:12.070Z,4.78
2022-09-12T07:01:41.266Z,4.38
2022-09-12T07:04:09.750Z,4.40
2022-09-12T07:06:40.038Z,5.22
2022-09-12T07:09:11.906Z,5.20
2022-09-12T07:11:41.629Z,5.43
2022-09-12T07:14:17.030Z,5.10
2022-09-12T07:16:45.664Z,4.72
2022-09-12T07:19:14.090Z,4.45
2022-09-12T07:21:45.953Z,4.45
2022-09-12T07:24:14.125Z,4.38
2022-09-12T07:26:44.253Z,3.83
2022-09-12T07:29:37.019Z,3.47
2022-09-12T07:32:06.299Z,3.63
2022-09-12T07:34:35.434Z,3.10
2022-09-12T07:37:04.064Z,3.03
2022-09-12T07:39:32.526Z,3.60
2022-09-12T07:42:01.139Z,3.63
2022-09-12T07:44:30.707Z,3.47
2022-09-12T07:46:59.117Z,3.13
2022-09-12T07:49:27.376Z,3.15
2022-09-12T07:51:55.509Z,2.10
2022-09-12T07:54:24.239Z,2.50
2022-09-12T07:56:52.706Z,2.72
2022-09-12T07:59:41.514Z,2.88
2022-09-12T08:02:17.053Z,2.83
2022-09-12T08:04:45.640Z,2.88
2022-09-12T08:07:13.755Z,2.90
2022-09-12T08:09:41.834Z,2.80
2022-09-12T08:12:10.319Z,3.00
2022-09-12T08:14:38.433Z,2.60
2022-09-12T08:17:06.858Z,2.53
2022-09-12T08:19:36.293Z,3.13
2022-09-12T08:22:04.707Z,2.60
2022-09-12T08:24:33.761Z,3.15
2022-09-12T08:27:01.892Z,3.03
2022-09-12T08:29:30.084Z,2.72
2022-09-12T08:31:58.213Z,2.70
2022-09-12T08:34:27.065Z,2.38
2022-09-12T08:36:56.675Z,2.78
2022-09-12T08:39:25.096Z,3.22
2022-09-12T08:42:01.889Z,2.75
2022-09-12T08:44:50.371Z,2.80
2022-09-12T08:47:26.918Z,3.10
2022-09-12T08:50:04.533Z,2.78
2022-09-12T08:52:40.503Z,3.60
2022-09-12T08:55:24.586Z,2.70
2022-09-12T08:57:53.063Z,2.90
2022-09-12T09:00:21.961Z,3.17
2022-09-12T09:03:27.119Z,3.03
2022-09-12T09:06:04.328Z,3.22
2022-09-12T09:08:51.398Z,2.83
2022-09-12T09:11:35.219Z,2.55
2022-09-12T09:14:33.274Z,2.50
2022-09-12T09:17:02.018Z,2.55
2022-09-12T09:19:36.523Z,3.13
2022-09-12T09:22:08.323Z,2.40
2022-09-12T09:24:44.087Z,2.45
2022-09-12T09:27:39.482Z,1.98
2022-09-12T09:30:14.162Z,2.17
2022-09-12T09:32:43.376Z,2.33
2022-09-12T09:35:18.479Z,2.17
2022-09-12T09:38:02.022Z,2.53
2022-09-12T09:40:44.681Z,2.13
2022-09-12T09:45:47.991Z,2.50
2022-09-12T09:48:20.208Z,2.13
2022-09-12T09:50:50.249Z,2.58
2022-09-12T09:53:28.421Z,3.00
2022-09-12T09:56:02.646Z,2.60
2022-09-12T09:58:35.586Z,2.90
2022-09-12T10:01:06.435Z,3.22
2022-09-12T10:03:36.242Z,2.78
2022-09-12T10:06:09.393Z,3.30
2022-09-12T10:08:39.366Z,3.50
2022-09-12T10:11:22.980Z,3.08
2022-09-12T10:13:56.996Z,2.80
2022-09-12T10:16:28.194Z,2.88
2022-09-12T10:18:58.062Z,2.60
2022-09-12T10:21:33.373Z,2.80
2022-09-12T10:24:18.506Z,2.28
2022-09-12T10:26:56.444Z,2.78
2022-09-12T10:29:28.919Z,2.90
2022-09-12T10:34:32.586Z,2.53
2022-09-12T10:37:05.808Z,2.78
2022-09-12T10:39:36.110Z,2.70
2022-09-12T10:42:06.871Z,3.08
2022-09-12T10:44:36.315Z,2.85
2022-09-12T10:47:22.585Z,3.30
2022-09-12T10:49:51.136Z,3.08
2022-09-12T10:52:23.646Z,2.72
2022-09-12T10:54:51.937Z,2.80
2022-09-12T10:57:37.991Z,2.70
2022-09-12T11:00:14.515Z,2.25
2022-09-12T11:03:04.072Z,2.47
2022-09-12T11:05:47.425Z,2.42
2022-09-12T11:08:28.215Z,2.13
2022-09-12T11:11:01.097Z,1.80
2022-09-12T11:13:52.694Z,1.73
2022-09-12T11:16:31.202Z,1.95
2022-09-12T11:19:16.738Z,1.70
2022-09-12T11:22:00.229Z,2.25
2022-09-12T11:25:09.941Z,1.90
2022-09-12T11:27:56.524Z,2.20
2022-09-12T11:30:25.995Z,1.88
2022-09-12T11:33:12.806Z,2.50
2022-09-12T11:35:51.866Z,2.30
2022-09-12T11:38:52.810Z,2.08
2022-09-12T11:41:26.384Z,2.50
2022-09-12T11:44:02.729Z,2.60
2022-09-12T11:46:37.456Z,3.15
2022-09-12T11:49:15.758Z,3.20
2022-09-12T11:51:51.910Z,3.25
2022-09-12T11:54:26.925Z,2.80
2022-09-12T11:57:03.647Z,3.20
2022-09-12T11:59:37.041Z,2.92
2022-09-12T12:02:14.445Z,3.28
2022-09-12T12:04:57.146Z,3.20
2022-09-12T12:09:55.790Z,3.20
2022-09-12T12:12:29.130Z,3.38
2022-09-12T12:14:59.168Z,2.80
2022-09-12T12:17:29.836Z,2.72
2022-09-12T12:20:04.937Z,2.92
2022-09-12T12:22:35.199Z,2.92
2022-09-12T12:25:28.860Z,2.97
2022-09-12T12:28:01.961Z,2.55
2022-09-12T12:31:03.914Z,3.10
2022-09-12T12:34:06.096Z,2.72
2022-09-12T12:36:42.490Z,2.53
2022-09-12T12:39:55.806Z,2.75
2022-09-12T12:43:06.513Z,3.10
2022-09-12T12:46:13.054Z,2.58
2022-09-12T12:49:12.272Z,2.72
2022-09-12T12:52:04.498Z,2.40
2022-09-12T12:54:56.331Z,2.00
2022-09-12T12:57:40.726Z,1.57
2022-09-12T13:00:30.074Z,1.88
2022-09-12T13:03:01.063Z,1.88
2022-09-12T13:05:39.706Z,1.70
2022-09-12T13:08:11.611Z,1.90
2022-09-12T13:10:40.282Z,2.20
2022-09-12T13:13:09.896Z,1.80
2022-09-12T13:15:52.799Z,2.28
2022-09-12T13:18:28.847Z,1.95
2022-09-12T13:21:07.333Z,2.25
2022-09-12T13:23:35.880Z,2.42
2022-09-12T13:26:05.177Z,2.03
2022-09-12T13:28:33.277Z,1.95
2022-09-12T13:31:10.903Z,1.90
2022-09-12T13:33:43.922Z,2.10
2022-09-12T13:36:48.486Z,2.38
2022-09-12T13:39:20.482Z,2.20
2022-09-12T13:42:23.216Z,1.90
2022-09-12T13:44:57.260Z,1.92
2022-09-12T13:47:29.670Z,1.85
2022-09-12T13:52:31.868Z,1.80
2022-09-12T13:55:01.924Z,1.90
2022-09-12T13:57:32.986Z,1.80
2022-09-12T14:00:02.623Z,1.80
2022-09-12T14:02:31.497Z,1.75
2022-09-12T14:05:10.693Z,1.92
2022-09-12T14:07:59.474Z,1.80
2022-09-12T14:10:34.209Z,1.83
2022-09-12T14:13:05.621Z,1.63
2022-09-12T14:15:37.300Z,1.63
2022-09-12T14:18:08.790Z,1.60
2022-09-12T14:20:39.582Z,1.90
2022-09-12T14:23:20.252Z,2.00
2022-09-12T14:25:49.594Z,1.77
2022-09-12T14:28:23.671Z,2.00
2022-09-12T14:31:05.068Z,1.80
2022-09-12T14:33:35.733Z,1.83
2022-09-12T14:36:22.098Z,1.60
2022-09-12T14:38:54.477Z,1.63
2022-09-12T14:41:27.726Z,1.52
2022-09-12T14:43:59.494Z,1.40
2022-09-12T14:46:32.110Z,1.42
2022-09-12T14:49:03.511Z,1.42
2022-09-12T14:51:35.087Z,1.40
2022-09-12T14:54:05.082Z,1.50
2022-09-12T14:56:42.443Z,1.58
2022-09-12T14:59:30.062Z,1.30
2022-09-12T15:02:24.398Z,1.40
2022-09-12T15:04:54.464Z,1.35
2022-09-12T15:07:34.839Z,1.50
2022-09-12T15:10:07.389Z,1.33
2022-09-12T15:12:35.460Z,1.23
2022-09-12T15:15:14.914Z,1.63
2022-09-12T15:17:43.372Z,1.48
2022-09-12T15:20:11.888Z,1.65
2022-09-12T15:22:41.429Z,1.40
2022-09-12T15:25:13.580Z,1.33
2022-09-12T15:27:42.414Z,1.52
2022-09-12T15:30:12.745Z,1.50
2022-09-12T15:32:42.144Z,1.10
2022-09-12T15:35:16.568Z,1.00
2022-09-12T15:37:44.853Z,1.60
2022-09-12T15:40:14.452Z,1.17
2022-09-12T15:42:42.972Z,1.27
2022-09-12T15:45:20.126Z,1.20
2022-09-12T15:47:48.364Z,1.13
2022-09-12T15:50:16.878Z,1.27
2022-09-12T15:52:44.992Z,1.20
2022-09-12T15:55:19.320Z,1.70
2022-09-12T15:57:48.092Z,1.40
2022-09-12T16:00:18.429Z,1.10
2022-09-12T16:02:47.404Z,1.17
2022-09-12T16:05:17.605Z,1.30
2022-09-12T16:07:46.394Z,1.60
2022-09-12T16:10:23.365Z,1.30
2022-09-12T16:12:51.788Z,1.10
2022-09-12T16:15:21.830Z,1.40
2022-09-12T16:17:50.462Z,1.20
2022-09-12T16:20:19.385Z,1.15
2022-09-12T16:22:47.989Z,1.23
2022-09-12T16:25:16.209Z,1.30
2022-09-12T16:27:46.523Z,1.85
2022-09-12T16:30:14.853Z,1.33
2022-09-12T16:32:42.976Z,1.05
2022-09-12T16:35:11.291Z,1.05
2022-09-12T16:37:39.365Z,1.30
2022-09-12T16:40:09.450Z,1.70
2022-09-12T16:42:40.738Z,1.60
2022-09-12T16:45:13.516Z,1.30
2022-09-12T16:47:41.766Z,1.40
2022-09-12T16:50:10.305Z,1.20
2022-09-12T16:52:38.371Z,1.80
2022-09-12T16:55:07.513Z,1.20
2022-09-12T16:57:35.649Z,1.20
2022-09-12T17:00:04.631Z,1.00
2022-09-12T17:02:34.164Z,1.27
2022-09-12T17:05:02.336Z,1.35
2022-09-12T17:07:30.623Z,1.13
2022-09-12T17:09:58.864Z,1.42
2022-09-12T17:12:26.961Z,1.52
2022-09-12T17:14:55.057Z,1.25
2022-09-12T17:17:23.388Z,1.40
2022-09-12T17:19:53.496Z,1.10
2022-09-12T17:22:21.726Z,1.50
2022-09-12T17:24:50.341Z,1.20
2022-09-12T17:27:18.494Z,1.30
2022-09-12T17:29:46.702Z,1.60
2022-09-12T17:32:17.553Z,1.92
2022-09-12T17:34:46.201Z,1.63
2022-09-12T17:37:15.744Z,1.65
2022-09-12T17:39:43.845Z,1.40
2022-09-12T17:42:12.193Z,1.30
2022-09-12T17:44:40.684Z,1.20
2022-09-12T17:47:08.821Z,1.10
2022-09-12T17:49:37.974Z,1.27
2022-09-12T17:52:06.174Z,1.02
2022-09-12T17:54:35.772Z,1.20
2022-09-12T17:57:05.212Z,1.08
2022-09-12T17:59:33.398Z,1.10
2022-09-12T18:02:16.406Z,1.33
2022-09-12T18:04:46.736Z,1.20
2022-09-12T18:07:15.388Z,1.25
2022-09-12T18:09:48.173Z,1.10
2022-09-12T18:12:17.689Z,1.10
2022-09-12T18:14:46.191Z,1.50
2022-09-12T18:17:14.816Z,1.23
2022-09-12T18:19:43.862Z,2.05
2022-09-12T18:22:12.067Z,1.30
2022-09-12T18:24:40.211Z,1.95
2022-09-12T18:27:09.916Z,1.25
2022-09-12T18:29:38.273Z,1.30
2022-09-12T18:32:06.992Z,1.50
2022-09-12T18:34:35.537Z,1.80
2022-09-12T18:37:05.750Z,2.13
2022-09-12T18:39:34.100Z,1.70
2022-09-12T18:42:02.494Z,1.55
2022-09-12T18:44:32.311Z,1.80
2022-09-12T18:47:00.906Z,1.58
2022-09-12T18:49:29.425Z,1.52
2022-09-12T18:51:57.887Z,1.52
2022-09-12T18:54:26.506Z,1.73
2022-09-12T18:56:55.071Z,1.70
2022-09-12T18:59:24.583Z,1.70
2022-09-12T19:01:54.431Z,1.70
2022-09-12T19:04:22.878Z,1.48
2022-09-12T19:06:51.949Z,1.90
2022-09-12T19:09:22.140Z,1.85
2022-09-12T19:11:50.651Z,1.60
2022-09-12T19:14:21.002Z,1.70
2022-09-12T19:16:51.168Z,1.90
2022-09-12T19:19:21.693Z,1.73
2022-09-12T19:21:50.200Z,1.95
2022-09-12T19:24:18.811Z,1.98
2022-09-12T19:26:47.685Z,1.58
2022-09-12T19:29:17.102Z,1.92
2022-09-12T19:31:45.927Z,1.60
2022-09-12T19:34:15.045Z,2.20
2022-09-12T19:36:46.766Z,1.70
2022-09-12T19:39:16.624Z,1.70
2022-09-12T19:41:45.248Z,1.92
2022-09-12T19:44:13.593Z,1.65
2022-09-12T19:46:42.089Z,2.00
2022-09-12T19:49:12.223Z,1.92
2022-09-12T19:51:40.913Z,1.58
2022-09-12T19:54:10.724Z,1.80
2022-09-12T19:56:38.956Z,1.83
2022-09-12T19:59:07.240Z,1.67
2022-09-12T20:01:37.282Z,1.60
2022-09-12T20:04:07.061Z,1.88
2022-09-12T20:06:35.273Z,1.70
2022-09-12T20:09:03.791Z,1.80
2022-09-12T20:11:36.099Z,1.75
2022-09-12T20:14:04.507Z,1.85
2022-09-12T20:16:35.798Z,1.95
2022-09-12T20:19:07.260Z,2.05
2022-09-12T20:21:36.350Z,2.00
2022-09-12T20:24:06.511Z,1.90
2022-09-12T20:26:36.239Z,1.67
2022-09-12T20:29:05.496Z,2.50
2022-09-12T20:31:34.668Z,2.00
2022-09-12T20:34:03.149Z,1.70
2022-09-12T20:36:31.369Z,2.05
2022-09-12T20:39:01.420Z,1.92
2022-09-12T20:41:31.526Z,1.95
2022-09-12T20:44:01.097Z,2.08
2022-09-12T20:46:30.351Z,1.75
2022-09-12T20:48:58.966Z,2.10
2022-09-12T20:51:29.794Z,2.10
2022-09-12T20:53:59.070Z,1.83
2022-09-12T20:56:28.670Z,1.90
2022-09-12T20:58:57.408Z,2.08
2022-09-12T21:01:28.269Z,2.90
2022-09-12T21:03:56.417Z,2.58
2022-09-12T21:06:25.054Z,2.17
2022-09-12T21:08:53.169Z,2.38
2022-09-12T21:11:22.138Z,1.98
2022-09-12T21:13:50.433Z,2.00
2022-09-12T21:16:21.585Z,2.50
2022-09-12T21:18:55.188Z,2.20
2022-09-12T21:21:24.403Z,2.20
2022-09-12T21:23:55.468Z,2.17
2022-09-12T21:26:24.366Z,2.03
2022-09-12T21:28:52.483Z,2.60
2022-09-12T21:31:20.659Z,2.30
2022-09-12T21:33:50.483Z,1.73
2022-09-12T21:36:19.050Z,2.22
2022-09-12T21:38:47.089Z,2.17
2022-09-12T21:41:17.239Z,2.25
2022-09-12T21:43:45.969Z,2.45
2022-09-12T21:46:14.447Z,1.73
2022-09-12T21:48:44.085Z,2.10
2022-09-12T21:51:13.545Z,2.42
2022-09-12T21:53:45.196Z,2.03
2022-09-12T21:56:16.890Z,2.50
2022-09-12T21:58:44.956Z,2.10
2022-09-12T22:01:13.663Z,2.17
2022-09-12T22:03:44.836Z,1.70
2022-09-12T22:06:32.815Z,2.00
2022-09-12T22:09:01.087Z,2.30
2022-09-12T22:11:29.191Z,1.63
2022-09-12T22:13:57.485Z,1.83
2022-09-12T22:16:25.566Z,2.22
2022-09-12T22:18:54.069Z,1.90
2022-09-12T22:21:24.596Z,1.92
2022-09-12T22:24:11.672Z,2.03
2022-09-12T22:26:44.484Z,2.42
2022-09-12T22:29:13.420Z,2.47
2022-09-12T22:31:41.590Z,2.30
2022-09-12T22:34:09.773Z,2.00
2022-09-12T22:36:39.108Z,2.05
2022-09-12T22:39:09.485Z,2.10
2022-09-12T22:41:40.358Z,2.70
2022-09-12T22:44:08.665Z,2.78
2022-09-12T22:46:38.033Z,2.20
2022-09-12T22:49:07.056Z,2.42
2022-09-12T22:51:36.150Z,2.25
2022-09-12T22:54:05.826Z,2.50
2022-09-12T22:56:35.563Z,2.63
2022-09-12T22:59:03.832Z,2.42
2022-09-12T23:01:32.375Z,2.75
2022-09-12T23:04:01.252Z,2.50
2022-09-12T23:06:29.423Z,2.60
2022-09-12T23:08:57.585Z,2.63
2022-09-12T23:11:25.811Z,2.17
2022-09-12T23:13:55.776Z,2.38
2022-09-12T23:16:25.805Z,2.75
2022-09-12T23:18:56.169Z,2.60
2022-09-12T23:21:24.447Z,2.80
2022-09-12T23:23:52.594Z,2.15
2022-09-12T23:26:22.884Z,2.47
2022-09-12T23:28:53.316Z,2.28
2022-09-12T23:31:24.071Z,2.60
2022-09-12T23:33:54.242Z,2.88
2022-09-12T23:36:23.000Z,2.40
2022-09-12T23:38:51.275Z,2.58
2022-09-12T23:41:20.522Z,2.88
2022-09-12T23:43:48.740Z,2.60
2022-09-12T23:46:18.267Z,2.85
2022-09-12T23:48:47.961Z,2.40
2022-09-12T23:51:16.474Z,2.50
2022-09-12T23:53:44.714Z,2.35
2022-09-12T23:56:12.924Z,2.70
2022-09-12T23:58:41.078Z,2.72
